Time;durP1;ratioP1;P1;durP2;ratioP2;P2;SDS_P1;SDS_P2;PMS_P1;PMS_P2;Temp;Humidity;BMP_temperature;BMP_pressure;BME280_temperature;BME280_humidity;BME280_pressure;Samples;Min_cycle;Max_cycle;Signal;HPM_P1;HPM_P2
2022/01/23 00:03:21;;;;;;;;;;;;;;;22.04;27.48;97057.09;10462729;28;1986;-50
2022/01/23 00:08:23;;;;;;;;;;;;;;;22.10;28.71;97065.84;10460514;28;2036;-50
2022/01/23 00:17:16;;;;;;;;;;;;;;;22.16;28.13;97060.38;10472005;28;2080;-54
2022/01/23 00:18:56;;;;;;;;;;;;;;;22.26;28.82;97059.63;10457705;28;1970;-52
2022/01/23 00:34:17;;;;;;;;;;;;;;;22.29;28.39;97049.38;10469062;28;1946;-58
2022/01/23 00:39:17;;;;;;;;;;;;;;;22.31;28.18;97044.66;10464100;28;1883;-50
2022/01/23 00:44:18;;;;;;;;;;;;;;;22.35;28.25;97052.84;10464281;28;1901;-57
2022/01/23 00:49:24;;;;;;;;;;;;;;;22.31;28.19;97044.66;10474973;28;2149;-52
2022/01/23 00:54:26;;;;;;;;;;;;;;;22.31;28.70;97052.56;10466558;28;1994;-50
2022/01/23 00:59:27;;;;;;;;;;;;;;;22.28;28.20;97058.34;10465160;28;1875;-53
2022/01/23 01:04:28;;;;;;;;;;;;;;;22.24;29.30;97059.91;10468413;28;1966;-49
2022/01/23 01:09:30;;;;;;;;;;;;;;;22.27;28.44;97054.13;10460519;28;1966;-56
2022/01/23 01:30:26;;;;;;;;;;;;;;;22.26;28.11;97060.44;10478329;28;1932;-52
2022/01/23 01:40:27;;;;;;;;;;;;;;;22.25;28.56;97063.34;10466037;28;1884;-53
2022/01/23 01:45:28;;;;;;;;;;;;;;;22.27;28.33;97066.53;10445182;28;1996;-52
2022/01/23 01:50:29;;;;;;;;;;;;;;;22.16;28.22;97063.00;10464664;28;2003;-52
2022/01/23 01:55:38;;;;;;;;;;;;;;;22.26;28.23;97054.34;10451703;28;1946;-56
2022/01/23 02:00:55;;;;;;;;;;;;;;;22.22;28.14;97062.00;10465060;28;2370;-55
2022/01/23 02:11:23;;;;;;;;;;;;;;;21.51;27.27;97051.81;10460449;28;1944;-56
2022/01/23 02:54:06;;;;;;;;;;;;;;;22.28;28.05;97057.53;10455391;28;1966;-55
2022/01/23 02:59:11;;;;;;;;;;;;;;;22.31;28.03;97055.22;10453198;28;1947;-57
2022/01/23 03:04:11;;;;;;;;;;;;;;;22.33;28.24;97041.75;10458495;28;1967;-57
2022/01/23 03:14:23;;;;;;;;;;;;;;;22.38;28.21;97050.47;10461988;28;1931;-57
2022/01/23 03:30:03;;;;;;;;;;;;;;;22.45;27.88;97058.19;10464764;28;1930;-61
2022/01/23 03:35:05;;;;;;;;;;;;;;;22.47;28.16;97054.25;10469662;28;1855;-56
2022/01/23 03:40:06;;;;;;;;;;;;;;;22.48;28.31;97052.41;10464673;28;1903;-56
2022/01/23 03:50:25;;;;;;;;;;;;;;;22.54;27.90;97046.91;10461189;28;2078;-57
2022/01/23 03:55:26;;;;;;;;;;;;;;;22.55;28.15;97059.06;10466900;28;1915;-56
2022/01/23 04:00:27;;;;;;;;;;;;;;;22.56;28.12;97065.97;10462399;28;1868;-56
2022/01/23 04:05:27;;;;;;;;;;;;;;;22.59;28.22;97065.47;10452649;28;1979;-57
2022/01/23 04:10:28;;;;;;;;;;;;;;;22.59;28.26;97075.22;10463874;28;1911;-58
2022/01/23 04:15:42;;;;;;;;;;;;;;;22.63;27.98;97076.31;10457295;28;1887;-62
2022/01/23 05:03:21;;;;;;;;;;;;;;;22.66;27.97;97086.41;10476031;28;2028;-57
2022/01/23 05:08:06;;;;;;;;;;;;;;;22.68;28.05;97089.56;10465126;28;2066;-57
2022/01/23 05:13:07;;;;;;;;;;;;;;;22.67;27.96;97080.84;10470939;28;1919;-58
2022/01/23 05:18:07;;;;;;;;;;;;;;;22.67;28.32;97064.19;10464227;28;1962;-58
2022/01/23 05:23:08;;;;;;;;;;;;;;;22.70;28.10;97068.97;10462346;28;2025;-59
2022/01/23 05:28:08;;;;;;;;;;;;;;;22.68;28.31;97063.16;10460013;28;2041;-55
2022/01/23 05:33:09;;;;;;;;;;;;;;;22.67;28.02;97054.41;10462190;28;1915;-58
2022/01/23 05:38:10;;;;;;;;;;;;;;;22.71;28.23;97051.28;10461967;28;1958;-56
2022/01/23 05:43:11;;;;;;;;;;;;;;;22.70;28.11;97078.75;10459291;28;2015;-58
2022/01/23 05:48:12;;;;;;;;;;;;;;;22.70;28.14;97079.53;10455305;28;1934;-58
2022/01/23 05:53:12;;;;;;;;;;;;;;;22.72;28.00;97089.84;10452743;28;2036;-57
2022/01/23 05:58:13;;;;;;;;;;;;;;;22.71;28.05;97088.28;10460560;28;1896;-58
2022/01/23 06:03:14;;;;;;;;;;;;;;;22.72;28.45;97093.31;10460425;28;1910;-59
2022/01/23 06:08:14;;;;;;;;;;;;;;;22.73;28.47;97091.47;10454494;28;1958;-57
2022/01/23 06:13:15;;;;;;;;;;;;;;;22.73;28.49;97097.53;10455624;28;1827;-57
2022/01/23 06:18:16;;;;;;;;;;;;;;;22.74;28.28;97104.41;10448809;28;1967;-54
2022/01/23 06:23:17;;;;;;;;;;;;;;;22.70;27.61;97110.47;10453709;28;2141;-58
2022/01/23 06:28:38;;;;;;;;;;;;;;;22.63;27.98;97103.56;10459506;28;2001;-57
2022/01/23 06:33:39;;;;;;;;;;;;;;;22.67;28.36;97118.91;10455036;28;1982;-57
2022/01/23 06:38:39;;;;;;;;;;;;;;;22.71;28.38;97106.78;10453255;28;1985;-57
2022/01/23 06:43:40;;;;;;;;;;;;;;;22.67;28.72;97109.13;10455821;28;1969;-57
2022/01/23 06:48:41;;;;;;;;;;;;;;;22.70;28.10;97123.69;10451296;28;2060;-55
2022/01/23 06:53:41;;;;;;;;;;;;;;;22.71;28.28;97112.06;10455925;28;1954;-61
2022/01/23 06:58:42;;;;;;;;;;;;;;;22.69;28.45;97114.16;10459854;28;1955;-56
2022/01/23 07:03:43;;;;;;;;;;;;;;;22.65;28.36;97104.09;10454914;28;1954;-58
2022/01/23 07:08:44;;;;;;;;;;;;;;;22.63;28.52;97114.13;10452685;28;1825;-60
2022/01/23 07:13:45;;;;;;;;;;;;;;;22.65;28.50;97096.16;10459257;28;1967;-59
2022/01/23 07:18:45;;;;;;;;;;;;;;;22.64;28.20;97112.28;10448986;28;2068;-60
2022/01/23 07:23:50;;;;;;;;;;;;;;;22.62;28.47;97131.03;10451447;28;1976;-58
2022/01/23 07:28:53;;;;;;;;;;;;;;;22.60;28.37;97138.44;10460549;28;1906;-57
2022/01/23 07:33:53;;;;;;;;;;;;;;;22.59;28.19;97155.31;10455248;28;1980;-57
2022/01/23 07:38:54;;;;;;;;;;;;;;;22.57;28.21;97165.31;10459228;28;1978;-57
2022/01/23 07:43:54;;;;;;;;;;;;;;;22.56;28.01;97166.38;10454205;28;2017;-61
2022/01/23 07:48:55;;;;;;;;;;;;;;;22.50;28.43;97172.66;10449051;28;1990;-59
2022/01/23 07:53:55;;;;;;;;;;;;;;;22.51;28.51;97184.81;10441842;28;1967;-58
2022/01/23 07:58:56;;;;;;;;;;;;;;;22.50;28.45;97188.50;10461817;28;1923;-59
2022/01/23 08:03:56;;;;;;;;;;;;;;;22.50;28.30;97191.16;10460790;28;1994;-59
2022/01/23 08:08:56;;;;;;;;;;;;;;;22.48;28.36;97195.88;10458759;28;1979;-58
2022/01/23 08:13:57;;;;;;;;;;;;;;;22.45;28.23;97201.69;10458321;28;2067;-59
2022/01/23 08:18:57;;;;;;;;;;;;;;;22.43;28.39;97214.34;10461772;28;2086;-58
2022/01/23 08:23:58;;;;;;;;;;;;;;;22.40;28.30;97214.06;10453713;28;1972;-55
2022/01/23 08:28:58;;;;;;;;;;;;;;;22.40;28.55;97228.03;10462281;28;1967;-59
2022/01/23 08:33:59;;;;;;;;;;;;;;;22.38;28.27;97230.13;10458728;28;1911;-58
2022/01/23 08:39:01;;;;;;;;;;;;;;;22.34;28.42;97226.41;10451932;28;2048;-59
2022/01/23 08:44:01;;;;;;;;;;;;;;;22.33;28.77;97230.09;10452292;28;1917;-58
2022/01/23 08:49:02;;;;;;;;;;;;;;;22.32;28.53;97228.50;10460654;28;2005;-59
2022/01/23 08:54:03;;;;;;;;;;;;;;;22.30;28.37;97224.50;10452614;28;2026;-57
2022/01/23 08:59:03;;;;;;;;;;;;;;;22.29;28.39;97209.72;10453136;28;1887;-58
2022/01/23 09:04:04;;;;;;;;;;;;;;;22.24;29.03;97205.16;10455263;28;1950;-54
2022/01/23 09:09:07;;;;;;;;;;;;;;;22.21;28.84;97202.25;10456545;28;2359;-57
2022/01/23 09:14:07;;;;;;;;;;;;;;;22.19;29.09;97207.78;10454879;28;1941;-58
2022/01/23 09:19:08;;;;;;;;;;;;;;;22.18;28.86;97202.72;10451424;28;1915;-61
2022/01/23 09:24:08;;;;;;;;;;;;;;;22.18;28.93;97224.66;10452983;28;1981;-57
2022/01/23 09:29:15;;;;;;;;;;;;;;;22.16;29.04;97212.75;10454064;28;1970;-57
2022/01/23 09:34:19;;;;;;;;;;;;;;;22.13;28.87;97208.78;10455693;28;2220;-56
2022/01/23 09:39:20;;;;;;;;;;;;;;;22.15;29.10;97205.88;10459347;28;1873;-56
2022/01/23 09:44:21;;;;;;;;;;;;;;;21.78;27.59;97203.84;10462981;28;1969;-55
2022/01/23 09:49:23;;;;;;;;;;;;;;;20.55;27.62;97216.53;10462623;28;1974;-57
2022/01/23 09:54:23;;;;;;;;;;;;;;;20.78;27.18;97208.50;10454821;28;1965;-58
2022/01/23 09:59:24;;;;;;;;;;;;;;;21.20;27.94;97210.72;10448173;28;1884;-56
2022/01/23 10:04:25;;;;;;;;;;;;;;;21.44;27.93;97214.75;10458370;28;1958;-58
2022/01/23 10:09:26;;;;;;;;;;;;;;;21.18;27.52;97207.53;10455769;28;1974;-56
2022/01/23 10:14:26;;;;;;;;;;;;;;;20.73;27.45;97192.59;10448724;28;1947;-57
2022/01/23 10:19:27;;;;;;;;;;;;;;;20.08;28.20;97201.97;10454780;28;1990;-57
2022/01/23 10:24:27;;;;;;;;;;;;;;;19.90;28.41;97207.41;10440961;28;1918;-54
2022/01/23 10:29:31;;;;;;;;;;;;;;;20.60;29.13;97200.03;10452022;28;1943;-55
2022/01/23 10:34:41;;;;;;;;;;;;;;;21.06;29.64;97197.88;10447264;28;2013;-58
2022/01/23 10:39:42;;;;;;;;;;;;;;;21.42;29.38;97195.72;10454587;28;1919;-65
2022/01/23 10:50:05;;;;;;;;;;;;;;;21.75;29.34;97195.63;10450851;28;1915;-55
2022/01/23 10:55:12;;;;;;;;;;;;;;;21.79;29.22;97207.28;10452357;28;1912;-53
2022/01/23 11:00:22;;;;;;;;;;;;;;;21.98;29.98;97203.31;10451420;28;1943;-52
2022/01/23 11:05:35;;;;;;;;;;;;;;;22.03;29.42;97198.06;10452591;28;1923;-52
2022/01/23 11:10:35;;;;;;;;;;;;;;;22.05;30.00;97192.56;10452606;28;1922;-55
2022/01/23 11:20:57;;;;;;;;;;;;;;;22.07;30.45;97183.34;10460227;28;1895;-53
2022/01/23 11:26:00;;;;;;;;;;;;;;;22.06;29.16;97178.31;10454804;28;1977;-57
2022/01/23 11:31:01;;;;;;;;;;;;;;;21.76;27.83;97176.91;10458069;28;1896;-55
2022/01/23 11:36:02;;;;;;;;;;;;;;;21.54;26.91;97170.03;10451604;28;1983;-57
2022/01/23 11:56:30;;;;;;;;;;;;;;;21.83;28.39;97172.25;10452711;28;1849;-57
2022/01/23 12:01:31;;;;;;;;;;;;;;;21.77;27.91;97156.59;10453714;28;2028;-54
2022/01/23 12:06:32;;;;;;;;;;;;;;;21.80;27.67;97158.75;10445900;28;2077;-57
2022/01/23 12:11:40;;;;;;;;;;;;;;;21.79;27.79;97150.03;10451105;28;1880;-56
2022/01/23 12:16:50;;;;;;;;;;;;;;;21.79;27.20;97147.38;10441698;28;1912;-56
2022/01/23 12:21:53;;;;;;;;;;;;;;;21.67;26.60;97144.06;10448181;28;1963;-55
2022/01/23 12:27:17;;;;;;;;;;;;;;;21.70;26.59;97140.94;10452445;28;1987;-55
2022/01/23 12:32:29;;;;;;;;;;;;;;;21.76;26.37;97144.44;10444931;28;1848;-56
2022/01/23 12:38:06;;;;;;;;;;;;;;;21.83;26.96;97139.78;10448908;28;2398;-55
2022/01/23 12:43:06;;;;;;;;;;;;;;;21.92;27.34;97133.03;10400646;28;1937;-55
2022/01/23 12:48:25;;;;;;;;;;;;;;;21.97;27.34;97138.34;10450551;28;1926;-53
2022/01/23 12:53:38;;;;;;;;;;;;;;;21.96;27.32;97142.03;10442227;28;1950;-56
2022/01/23 12:58:38;;;;;;;;;;;;;;;21.95;27.59;97142.31;10448465;28;2041;-57
2022/01/23 13:03:42;;;;;;;;;;;;;;;21.93;27.57;97133.84;10443764;28;1961;-55
2022/01/23 13:08:52;;;;;;;;;;;;;;;21.94;27.48;97146.78;10450502;28;1983;-55
2022/01/23 13:13:58;;;;;;;;;;;;;;;21.87;27.92;97138.25;10458793;28;1928;-57
2022/01/23 13:34:49;;;;;;;;;;;;;;;21.85;27.67;97135.84;10460604;28;1899;-57
2022/01/23 13:39:53;;;;;;;;;;;;;;;21.80;28.03;97132.34;10458667;28;1978;-55
2022/01/23 14:00:57;;;;;;;;;;;;;;;21.80;27.32;97112.00;10448391;28;1970;-56
2022/01/23 14:05:57;;;;;;;;;;;;;;;21.76;27.34;97120.69;10443785;28;1918;-56
2022/01/23 14:10:58;;;;;;;;;;;;;;;21.72;26.75;97116.94;10431775;28;2631;-55
2022/01/23 14:15:58;;;;;;;;;;;;;;;21.68;26.76;97121.09;10444824;28;1943;-55
2022/01/23 14:21:09;;;;;;;;;;;;;;;21.64;25.78;97122.66;10445436;28;2042;-55
2022/01/23 14:26:10;;;;;;;;;;;;;;;21.62;26.15;97125.53;10436166;28;2039;-55
2022/01/23 14:31:22;;;;;;;;;;;;;;;21.58;25.49;97137.63;10440007;28;1854;-53
2022/01/23 14:36:23;;;;;;;;;;;;;;;21.59;26.33;97141.88;10402106;28;1176637;-56
2022/01/23 14:41:24;;;;;;;;;;;;;;;21.56;25.66;97144.19;10448874;28;1911;-56
2022/01/23 14:46:25;;;;;;;;;;;;;;;21.52;25.39;97143.09;10439033;28;2034;-56
2022/01/23 14:51:27;;;;;;;;;;;;;;;21.58;25.25;97142.09;10441948;28;1998;-57
2022/01/23 14:56:29;;;;;;;;;;;;;;;21.56;25.48;97137.09;10435797;28;2331;-56
2022/01/23 15:01:30;;;;;;;;;;;;;;;21.58;25.79;97142.09;10445964;28;1999;-54
2022/01/23 15:06:30;;;;;;;;;;;;;;;21.53;25.27;97140.22;10441936;28;1938;-57
2022/01/23 15:11:31;;;;;;;;;;;;;;;21.57;26.13;97137.88;10442408;28;1937;-53
2022/01/23 15:16:31;;;;;;;;;;;;;;;21.57;26.22;97143.97;10450414;28;2005;-55
2022/01/23 15:21:32;;;;;;;;;;;;;;;21.50;25.71;97142.53;10442585;28;1915;-53
2022/01/23 15:26:34;;;;;;;;;;;;;;;21.49;25.74;97138.31;10456146;28;1923;-56
2022/01/23 15:31:35;;;;;;;;;;;;;;;21.48;25.68;97132.25;10449720;28;1998;-54
2022/01/23 15:36:36;;;;;;;;;;;;;;;21.47;25.41;97130.66;10456634;28;1978;-57
2022/01/23 15:41:36;;;;;;;;;;;;;;;21.49;25.98;97133.84;10456120;28;1919;-57
2022/01/23 15:46:37;;;;;;;;;;;;;;;21.67;27.09;97125.59;10460191;28;2013;-53
2022/01/23 15:51:38;;;;;;;;;;;;;;;21.65;27.03;97130.34;10454430;28;2066;-56
2022/01/23 15:56:38;;;;;;;;;;;;;;;21.72;27.30;97132.78;10451785;28;2536;-59
2022/01/23 16:01:39;;;;;;;;;;;;;;;21.91;28.24;97131.41;10439290;28;1955;-58
2022/01/23 16:06:40;;;;;;;;;;;;;;;21.72;26.65;97135.44;10440985;28;1950;-57
2022/01/23 16:11:40;;;;;;;;;;;;;;;21.66;26.81;97139.03;10447166;28;1923;-58
2022/01/23 16:16:41;;;;;;;;;;;;;;;21.64;26.29;97130.56;10453996;28;1956;-54
2022/01/23 16:21:41;;;;;;;;;;;;;;;21.63;26.15;97124.50;10455036;28;1954;-58
2022/01/23 16:26:42;;;;;;;;;;;;;;;21.62;26.47;97125.53;10439277;28;1909;-58
2022/01/23 16:31:42;;;;;;;;;;;;;;;21.63;26.33;97126.34;10444748;28;1309;-58
2022/01/23 16:36:43;;;;;;;;;;;;;;;21.64;27.08;97120.81;10457363;28;1707;-55
2022/01/23 16:41:43;;;;;;;;;;;;;;;21.69;25.96;97117.44;10462802;28;1801;-58
2022/01/23 16:46:45;;;;;;;;;;;;;;;21.76;27.20;97118.81;10465119;28;1906;-58
2022/01/23 16:51:45;;;;;;;;;;;;;;;21.78;27.06;97132.56;10457588;28;1874;-56
2022/01/23 16:56:46;;;;;;;;;;;;;;;21.73;26.91;97131.72;10457616;28;1823;-56
2022/01/23 17:01:47;;;;;;;;;;;;;;;21.78;26.85;97129.16;10458368;28;1830;-56
2022/01/23 17:06:47;;;;;;;;;;;;;;;21.83;27.87;97123.94;10457756;28;2086;-55
2022/01/23 17:11:47;;;;;;;;;;;;;;;21.85;26.52;97127.94;10457402;28;1812;-53
2022/01/23 17:16:48;;;;;;;;;;;;;;;21.73;26.83;97135.16;10438713;28;1881;-53
2022/01/23 17:21:48;;;;;;;;;;;;;;;21.70;25.82;97127.72;10450882;28;1846;-54
2022/01/23 17:26:48;;;;;;;;;;;;;;;21.66;26.44;97115.28;10457340;28;1972;-55
2022/01/23 17:31:49;;;;;;;;;;;;;;;21.68;26.82;97110.53;10451415;28;1875;-56
2022/01/23 17:36:49;;;;;;;;;;;;;;;21.62;26.45;97106.25;10456387;28;1864;-56
2022/01/23 17:41:50;;;;;;;;;;;;;;;21.65;27.13;97105.78;10449304;28;1778;-54
2022/01/23 17:46:56;;;;;;;;;;;;;;;21.62;26.54;97112.34;10446052;28;1912;-57
2022/01/23 17:51:56;;;;;;;;;;;;;;;21.58;27.12;97111.25;10453982;28;1904;-53
2022/01/23 17:56:57;;;;;;;;;;;;;;;21.66;27.21;97117.91;10452554;28;1722;-57
2022/01/23 18:01:57;;;;;;;;;;;;;;;21.63;26.63;97134.25;10453019;28;1852;-57
2022/01/23 18:07:04;;;;;;;;;;;;;;;21.73;28.38;97134.38;10439901;28;1926;-57
2022/01/23 18:12:05;;;;;;;;;;;;;;;21.83;28.71;97151.16;10458240;28;1824;-55
2022/01/23 18:17:05;;;;;;;;;;;;;;;21.84;28.73;97146.66;10455001;28;1846;-56
2022/01/23 18:22:06;;;;;;;;;;;;;;;21.85;29.24;97164.09;10430911;28;1955;-56
2022/01/23 18:27:09;;;;;;;;;;;;;;;21.82;28.84;97160.09;10431414;28;2141;-58
2022/01/23 18:32:10;;;;;;;;;;;;;;;21.80;28.66;97167.44;10437543;28;2104;-57
2022/01/23 18:37:10;;;;;;;;;;;;;;;21.83;28.97;97163.53;10435276;28;2261;-57
2022/01/23 18:42:11;;;;;;;;;;;;;;;21.81;28.74;97168.25;10430519;28;1972;-57
2022/01/23 18:47:11;;;;;;;;;;;;;;;21.80;28.99;97169.31;10447131;28;1989;-57
2022/01/23 18:52:13;;;;;;;;;;;;;;;21.77;28.13;97172.41;10454928;28;1842;-58
2022/01/23 18:57:18;;;;;;;;;;;;;;;21.68;27.51;97173.88;10456135;28;1879;-57
2022/01/23 19:02:21;;;;;;;;;;;;;;;21.38;26.92;97178.78;10454428;28;2242;-56
2022/01/23 19:12:26;;;;;;;;;;;;;;;21.36;27.95;97167.69;10444368;28;1878;-55
2022/01/23 19:17:26;;;;;;;;;;;;;;;21.52;28.55;97158.91;10429077;28;2037;-56
2022/01/23 19:22:29;;;;;;;;;;;;;;;21.57;28.21;97156.34;10436781;28;1754;-57
2022/01/23 19:27:32;;;;;;;;;;;;;;;21.62;28.13;97159.03;10442900;28;2020;-54
2022/01/23 19:32:33;;;;;;;;;;;;;;;21.62;28.62;97170.41;10440636;28;1876;-57
2022/01/23 19:37:34;;;;;;;;;;;;;;;21.66;28.69;97173.34;10440117;28;1837;-56
2022/01/23 19:52:36;;;;;;;;;;;;;;;21.65;27.94;97169.13;10462934;28;2004;-57
2022/01/23 19:57:36;;;;;;;;;;;;;;;21.66;27.93;97165.41;10460619;28;1842;-56
2022/01/23 20:02:37;;;;;;;;;;;;;;;21.61;27.68;97163.53;10457794;28;1769;-57
2022/01/23 20:07:37;;;;;;;;;;;;;;;21.64;28.19;97168.31;10462336;28;1965;-57
2022/01/23 20:12:44;;;;;;;;;;;;;;;21.60;26.48;97172.47;10464644;28;2264;-56
2022/01/23 20:17:45;;;;;;;;;;;;;;;21.66;28.29;97175.97;10461377;28;2028;-54
2022/01/23 20:22:45;;;;;;;;;;;;;;;21.67;27.81;97172.31;10465412;28;1902;-56
2022/01/23 20:27:46;;;;;;;;;;;;;;;21.66;27.92;97168.06;10468849;28;1765;-59
2022/01/23 20:32:47;;;;;;;;;;;;;;;21.64;27.92;97167.50;10462268;28;1773;-58
2022/01/23 20:37:50;;;;;;;;;;;;;;;21.64;27.67;97157.75;10463966;28;1789;-56
2022/01/23 20:42:51;;;;;;;;;;;;;;;21.62;28.02;97161.69;10463246;28;1915;-57
2022/01/23 20:47:51;;;;;;;;;;;;;;;21.62;27.72;97166.94;10462741;28;1793;-58
2022/01/23 20:58:01;;;;;;;;;;;;;;;21.60;27.07;97179.59;10456354;28;2059;-55
2022/01/23 21:03:02;;;;;;;;;;;;;;;21.60;27.34;97176.97;10451956;28;1968;-56
2022/01/23 21:08:03;;;;;;;;;;;;;;;21.58;26.50;97171.13;10457991;28;1817;-56
2022/01/23 21:13:04;;;;;;;;;;;;;;;21.54;25.77;97178.75;10461990;28;1843;-56
2022/01/23 21:18:15;;;;;;;;;;;;;;;21.56;26.90;97181.13;10460174;28;1844;-56
2022/01/23 21:29:19;;;;;;;;;;;;;;;21.57;27.04;97188.03;10463644;28;1861;-55
2022/01/23 21:39:30;;;;;;;;;;;;;;;21.52;26.43;97188.75;10455962;28;2107;-55
2022/01/23 21:44:31;;;;;;;;;;;;;;;21.52;25.63;97196.66;10458309;28;1921;-56
2022/01/23 21:49:31;;;;;;;;;;;;;;;21.51;25.38;97189.81;10457663;28;1761;-56
2022/01/23 21:54:32;;;;;;;;;;;;;;;21.46;26.23;97187.09;10456769;28;1872;-54
2022/01/23 21:59:32;;;;;;;;;;;;;;;21.49;25.83;97178.69;10458259;28;1822;-53
2022/01/23 22:04:33;;;;;;;;;;;;;;;21.47;25.57;97175.50;10461718;28;1909;-56
2022/01/23 22:20:22;;;;;;;;;;;;;;;21.41;25.64;97167.78;10452393;28;1778;-57
2022/01/23 22:30:42;;;;;;;;;;;;;;;21.46;25.85;97162.53;10458351;28;1817;-56
2022/01/23 22:35:42;;;;;;;;;;;;;;;21.44;25.31;97164.63;10456965;28;1904;-55
2022/01/23 22:40:43;;;;;;;;;;;;;;;21.43;25.07;97173.59;10460217;28;1977;-56
2022/01/23 22:51:07;;;;;;;;;;;;;;;21.43;24.78;97174.38;10432473;28;2182;-55
2022/01/23 22:56:07;;;;;;;;;;;;;;;21.42;25.52;97178.06;10457269;28;1882;-56
2022/01/23 23:01:08;;;;;;;;;;;;;;;21.45;25.15;97174.16;10455914;28;1839;-56
2022/01/23 23:06:08;;;;;;;;;;;;;;;21.44;25.02;97175.19;10450613;28;1976;-56
2022/01/23 23:11:13;;;;;;;;;;;;;;;21.41;24.91;97173.03;10453515;28;1887;-56
2022/01/23 23:16:18;;;;;;;;;;;;;;;21.44;25.01;97178.63;10453167;28;1814;-54
2022/01/23 23:21:45;;;;;;;;;;;;;;;21.41;24.81;97173.03;10457473;28;1870;-51
2022/01/23 23:26:47;;;;;;;;;;;;;;;21.43;24.73;97173.59;10462789;28;1913;-54
2022/01/23 23:31:47;;;;;;;;;;;;;;;21.39;25.22;97157.44;10452988;28;1814;-55
2022/01/23 23:36:48;;;;;;;;;;;;;;;21.38;24.57;97168.25;10465654;28;1835;-51
2022/01/23 23:41:52;;;;;;;;;;;;;;;21.38;24.68;97153.22;10459263;28;1777;-55
2022/01/23 23:46:58;;;;;;;;;;;;;;;21.40;25.05;97150.34;10464704;28;1910;-54
2022/01/23 23:51:59;;;;;;;;;;;;;;;21.39;24.80;97146.13;10461602;28;1850;-52
2022/01/23 23:57:01;;;;;;;;;;;;;;;21.41;24.88;97151.94;10467557;28;1824;-56
